Time;durP1;ratioP1;P1;durP2;ratioP2;P2;SDS_P1;SDS_P2;PMS_P1;PMS_P2;Temp;Humidity;BMP_temperature;BMP_pressure;BME280_temperature;BME280_humidity;BME280_pressure;Samples;Min_cycle;Max_cycle;Signal;HPM_P1;HPM_P2
2022/09/13 00:00:43;;;;;;;8.85;3.58;;;;;;;20.14;47.09;101373.78;5034007;28;20026;-76
2022/09/13 00:03:10;;;;;;;7.13;3.08;;;;;;;20.11;47.13;101378.09;5033919;28;20036;-75
2022/09/13 00:05:37;;;;;;;6.78;3.05;;;;;;;20.10;47.01;101376.50;5033832;28;20025;-75
2022/09/13 00:08:05;;;;;;;9.45;3.45;;;;;;;20.08;47.08;101380.78;5033800;28;20410;-75
2022/09/13 00:10:33;;;;;;;6.72;3.10;;;;;;;20.07;47.18;101379.19;5033595;28;20047;-75
2022/09/13 00:12:59;;;;;;;8.07;3.40;;;;;;;20.07;47.09;101376.41;5033485;28;20036;-75
2022/09/13 00:15:24;;;;;;;7.50;3.03;;;;;;;20.08;47.17;101378.00;5033689;28;20423;-75
2022/09/13 00:17:50;;;;;;;8.02;3.83;;;;;;;20.07;47.07;101382.75;5033598;28;20038;-75
2022/09/13 00:20:15;;;;;;;7.78;3.00;;;;;;;20.03;47.14;101381.88;5033719;28;20029;-75
2022/09/13 00:22:41;;;;;;;5.28;3.17;;;;;;;20.03;47.19;101378.31;5033419;28;20053;-76
2022/09/13 00:25:07;;;;;;;7.10;3.13;;;;;;;19.98;47.13;101381.34;5033520;28;20037;-76
2022/09/13 00:27:34;;;;;;;6.75;3.58;;;;;;;19.89;47.27;101381.56;5033256;28;20526;-77
2022/09/13 00:30:00;;;;;;;6.68;3.28;;;;;;;19.89;47.18;101378.78;5033402;28;20036;-75
2022/09/13 00:32:26;;;;;;;6.78;3.55;;;;;;;19.84;47.34;101381.81;5031701;28;20029;-75
2022/09/13 00:34:51;;;;;;;8.75;3.38;;;;;;;19.87;47.41;101378.31;5032607;28;20025;-78
2022/09/13 00:37:17;;;;;;;7.80;3.60;;;;;;;19.88;47.33;101377.97;5033123;28;20504;-75
2022/09/13 00:39:43;;;;;;;6.32;3.42;;;;;;;19.86;47.35;101369.19;5033242;28;20033;-75
2022/09/13 00:42:12;;;;;;;5.30;3.17;;;;;;;19.82;47.42;101368.31;5033224;28;20033;-79
2022/09/13 00:45:09;;;;;;;8.05;3.03;;;;;;;19.77;47.26;101370.56;5033234;28;20373;-75
2022/09/13 00:48:03;;;;;;;7.38;3.40;;;;;;;19.71;47.41;101372.81;5033071;28;20026;-75
2022/09/13 00:50:41;;;;;;;8.98;3.85;;;;;;;19.65;47.44;101374.25;5033006;28;20033;-75
2022/09/13 00:53:28;;;;;;;5.32;3.20;;;;;;;19.65;47.18;101374.25;5033049;28;20593;-75
2022/09/13 00:56:15;;;;;;;9.18;4.60;;;;;;;19.59;47.49;101373.72;5032924;28;20104;-75
2022/09/13 00:59:00;;;;;;;8.57;3.90;;;;;;;19.57;47.54;101375.22;5032866;28;20032;-76
2022/09/13 01:01:37;;;;;;;8.15;3.95;;;;;;;19.61;47.37;101376.13;5032788;28;20030;-75
2022/09/13 01:04:03;;;;;;;6.63;3.90;;;;;;;19.59;47.43;101361.84;5032691;28;20104;-75
2022/09/13 01:06:32;;;;;;;11.02;4.30;;;;;;;19.47;47.57;101362.69;5032770;28;20064;-76
2022/09/13 01:09:03;;;;;;;9.38;4.15;;;;;;;19.43;47.65;101367.34;5032761;28;20128;-75
2022/09/13 01:11:46;;;;;;;7.78;3.83;;;;;;;19.44;47.80;101370.94;5032633;28;20046;-78
2022/09/13 01:14:12;;;;;;;16.77;4.30;;;;;;;19.50;47.50;101367.53;5032748;28;20037;-78
2022/09/13 01:16:38;;;;;;;12.52;4.57;;;;;;;19.49;47.49;101371.44;5032592;28;20039;-76
2022/09/13 01:19:04;;;;;;;11.73;4.57;;;;;;;19.49;47.59;101365.91;5031278;28;20379;-76
2022/09/13 01:21:59;;;;;;;9.40;4.68;;;;;;;19.49;47.59;101370.66;5032561;28;20041;-75
2022/09/13 01:24:37;;;;;;;13.82;4.30;;;;;;;19.51;47.66;101365.56;5032510;28;20104;-75
2022/09/13 01:27:34;;;;;;;8.10;4.47;;;;;;;19.47;47.69;101357.16;5032540;28;20388;-75
2022/09/13 01:30:41;;;;;;;11.40;4.50;;;;;;;19.43;47.69;101366.56;5032480;28;20056;-75
2022/09/13 01:33:15;;;;;;;8.80;4.40;;;;;;;19.48;47.64;101369.03;4990814;28;20396;-75
2022/09/13 01:36:11;;;;;;;10.73;4.07;;;;;;;19.43;47.59;101366.56;5028096;28;20045;-76
2022/09/13 01:38:56;;;;;;;8.77;4.07;;;;;;;19.39;47.47;101361.72;5032336;28;20033;-75
2022/09/13 01:41:34;;;;;;;9.35;5.03;;;;;;;19.34;47.62;101353.66;5032459;28;20060;-75
2022/09/13 01:44:37;;;;;;;6.68;4.35;;;;;;;19.28;47.42;101355.09;5032198;28;20057;-75
2022/09/13 01:47:22;;;;;;;5.82;4.30;;;;;;;19.22;47.59;101351.00;5036490;28;20494;-75
2022/09/13 01:50:08;;;;;;;9.45;4.50;;;;;;;19.17;47.74;101359.56;5036512;28;20108;-75
2022/09/13 01:52:40;;;;;;;9.15;4.32;;;;;;;19.21;47.68;101354.94;5036435;28;20100;-75
2022/09/13 01:55:23;;;;;;;7.85;4.43;;;;;;;19.17;47.64;101359.56;5036409;28;20051;-75
2022/09/13 01:58:02;;;;;;;12.48;4.70;;;;;;;19.13;47.73;101351.16;5036202;28;20031;-74
2022/09/13 02:00:35;;;;;;;10.30;4.93;;;;;;;19.13;47.78;101353.13;5051596;28;20380;-76
2022/09/13 02:03:09;;;;;;;8.50;4.03;;;;;;;19.18;47.83;101349.28;5036020;28;20259;-76
2022/09/13 02:06:12;;;;;;;9.40;4.63;;;;;;;19.11;47.81;101356.25;5036237;28;20021;-78
2022/09/13 02:08:46;;;;;;;7.72;4.10;;;;;;;19.08;47.82;101361.69;5014539;28;20521;-78
2022/09/13 02:11:12;;;;;;;9.25;3.97;;;;;;;19.09;47.82;101366.06;5035802;28;20703;-75
2022/09/13 02:13:58;;;;;;;10.27;4.25;;;;;;;19.10;47.92;101359.38;5035891;28;20104;-75
2022/09/13 02:16:34;;;;;;;9.80;4.18;;;;;;;19.14;47.75;101360.28;5035697;28;20018;-75
2022/09/13 02:19:17;;;;;;;9.40;3.40;;;;;;;19.06;48.02;101359.28;5035712;28;20026;-75
2022/09/13 02:21:48;;;;;;;8.77;3.88;;;;;;;19.09;47.80;101353.03;5035865;28;20025;-76
2022/09/13 02:24:45;;;;;;;6.85;3.97;;;;;;;19.05;47.95;101351.34;5035781;28;20517;-75
2022/09/13 02:27:15;;;;;;;5.43;3.10;;;;;;;19.04;47.95;101353.31;5035051;28;20038;-76
2022/09/13 02:29:44;;;;;;;8.10;3.08;;;;;;;19.11;47.75;101359.00;5035707;28;20375;-75
2022/09/13 02:32:25;;;;;;;9.85;4.00;;;;;;;19.12;47.86;101359.84;5035577;28;20021;-76
2022/09/13 02:35:03;;;;;;;7.97;3.63;;;;;;;19.12;47.62;101360.66;5035562;28;20021;-75
2022/09/13 02:37:33;;;;;;;10.70;4.30;;;;;;;19.09;47.85;101360.53;5035481;28;20472;-75
2022/09/13 02:40:06;;;;;;;7.10;3.17;;;;;;;19.09;47.89;101355.00;5035512;28;20036;-75
2022/09/13 02:42:43;;;;;;;7.78;3.10;;;;;;;19.02;47.80;101363.91;5035450;28;20029;-75
2022/09/13 02:45:10;;;;;;;8.25;3.90;;;;;;;19.02;47.80;101357.56;5035347;28;20100;-76
2022/09/13 02:47:49;;;;;;;7.20;3.60;;;;;;;18.95;48.04;101349.88;5035322;28;20043;-75
2022/09/13 02:50:23;;;;;;;4.75;2.65;;;;;;;18.93;47.87;101348.63;5035225;28;20361;-75
2022/09/13 02:52:58;;;;;;;5.38;2.85;;;;;;;18.93;47.85;101351.41;5035278;28;20036;-75
2022/09/13 02:55:32;;;;;;;6.40;2.92;;;;;;;18.90;47.82;101352.13;5035011;28;20039;-75
2022/09/13 02:58:04;;;;;;;4.63;2.67;;;;;;;18.86;47.82;101338.16;5034370;28;20087;-75
2022/09/13 03:00:30;;;;;;;11.65;3.75;;;;;;;18.86;48.04;101349.25;5050421;28;20457;-75
2022/09/13 03:02:58;;;;;;;8.68;3.08;;;;;;;18.83;48.03;101348.00;5035134;28;20060;-78
2022/09/13 03:05:24;;;;;;;7.25;3.25;;;;;;;18.78;48.04;101347.44;5035096;28;20028;-75
2022/09/13 03:07:51;;;;;;;5.07;2.95;;;;;;;18.76;48.06;101339.50;5034868;28;20104;-75
2022/09/13 03:10:17;;;;;;;5.55;3.05;;;;;;;18.77;47.89;101341.09;5034699;28;20056;-75
2022/09/13 03:13:04;;;;;;;5.18;2.63;;;;;;;18.76;48.06;101345.03;5034598;28;20033;-76
2022/09/13 03:15:52;;;;;;;6.75;3.75;;;;;;;18.72;48.06;101344.13;5034843;28;20028;-75
2022/09/13 03:18:46;;;;;;;5.50;3.38;;;;;;;18.61;48.10;101336.66;5034759;28;20025;-75
2022/09/13 03:21:52;;;;;;;6.65;3.25;;;;;;;18.56;48.15;101338.50;5034761;28;20028;-75
2022/09/13 03:24:50;;;;;;;8.48;3.13;;;;;;;18.50;48.36;101336.34;5034720;28;20049;-76
2022/09/13 03:27:36;;;;;;;7.22;3.20;;;;;;;18.52;48.23;101323.78;5034754;28;20064;-75
2022/09/13 03:30:05;;;;;;;6.85;2.58;;;;;;;18.59;48.19;101323.19;5034643;28;20040;-75
2022/09/13 03:33:03;;;;;;;6.25;3.15;;;;;;;18.60;48.07;101324.78;5034558;28;20383;-75
2022/09/13 03:35:31;;;;;;;7.32;3.45;;;;;;;18.58;48.13;101319.59;5028620;28;20438;-75
2022/09/13 03:38:15;;;;;;;4.88;2.50;;;;;;;18.56;48.29;101329.41;5034166;28;20029;-79
2022/09/13 03:40:52;;;;;;;5.88;2.70;;;;;;;18.64;48.01;101330.41;5033086;28;20442;-77
2022/09/13 03:43:25;;;;;;;8.02;3.42;;;;;;;18.61;47.97;101331.13;5033098;28;20029;-78
2022/09/13 03:45:55;;;;;;;7.43;2.67;;;;;;;18.62;48.03;101330.78;5034223;28;20022;-75
2022/09/13 03:48:22;;;;;;;11.00;3.30;;;;;;;18.71;47.79;101331.44;5034233;28;20112;-75
2022/09/13 03:50:48;;;;;;;6.65;2.65;;;;;;;18.73;47.82;101342.16;5034034;28;20541;-77
2022/09/13 03:53:19;;;;;;;6.50;2.35;;;;;;;18.76;47.80;101336.72;5034018;28;20033;-76
2022/09/13 03:55:45;;;;;;;3.63;2.05;;;;;;;18.75;47.73;101348.16;5034062;28;20041;-75
2022/09/13 03:58:13;;;;;;;5.32;2.65;;;;;;;18.75;47.60;101346.19;5033979;28;20037;-78
2022/09/13 04:00:40;;;;;;;4.93;2.53;;;;;;;18.72;47.71;101346.09;5033937;28;20029;-77
2022/09/13 04:03:06;;;;;;;5.50;2.30;;;;;;;18.71;47.93;101355.56;5031251;28;20101;-75
2022/09/13 04:05:36;;;;;;;6.45;2.67;;;;;;;18.69;47.86;101355.09;5033854;28;20029;-75
2022/09/13 04:08:04;;;;;;;5.43;2.97;;;;;;;18.74;47.95;101357.59;5033624;28;20022;-75
2022/09/13 04:10:31;;;;;;;4.20;2.35;;;;;;;18.75;47.82;101350.94;5033567;28;20099;-76
2022/09/13 04:12:58;;;;;;;7.40;3.38;;;;;;;18.70;47.80;101360.28;5033755;28;20522;-76
2022/09/13 04:15:24;;;;;;;7.47;2.70;;;;;;;18.72;47.93;101357.16;5033656;28;20021;-75
2022/09/13 04:17:49;;;;;;;9.05;2.80;;;;;;;18.68;47.90;101346.00;5033649;28;20155;-77
2022/09/13 04:20:15;;;;;;;8.43;2.50;;;;;;;18.62;47.92;101344.59;5033524;28;20513;-75
2022/09/13 04:22:41;;;;;;;6.20;2.30;;;;;;;18.69;47.74;101342.06;5033589;28;20030;-75
2022/09/13 04:25:07;;;;;;;5.93;2.55;;;;;;;18.68;47.90;101334.94;5033527;28;20068;-74
2022/09/13 04:27:34;;;;;;;3.95;2.47;;;;;;;18.66;47.95;101342.75;5033477;28;20035;-75
2022/09/13 04:30:01;;;;;;;8.27;3.00;;;;;;;18.70;48.04;101329.84;5033358;28;20026;-75
2022/09/13 04:32:26;;;;;;;8.18;2.60;;;;;;;18.73;47.79;101325.53;5033338;28;20079;-77
2022/09/13 04:34:53;;;;;;;8.93;2.80;;;;;;;18.68;47.95;101329.41;5033215;28;20022;-74
2022/09/13 04:37:19;;;;;;;5.85;2.70;;;;;;;18.66;48.25;101334.44;5033164;28;20037;-75
2022/09/13 04:39:45;;;;;;;6.70;2.38;;;;;;;18.70;48.14;101335.38;5033226;28;20065;-75
2022/09/13 04:42:11;;;;;;;6.32;2.55;;;;;;;18.69;48.34;101339.31;5033049;28;20484;-75
2022/09/13 04:44:37;;;;;;;7.15;2.67;;;;;;;18.68;48.59;101328.59;5033167;28;20026;-75
2022/09/13 04:47:02;;;;;;;7.43;2.25;;;;;;;18.68;48.43;101337.69;5033114;28;20036;-78
2022/09/13 04:49:28;;;;;;;6.53;2.33;;;;;;;18.67;48.53;101341.63;5033024;28;20104;-75
2022/09/13 04:51:54;;;;;;;9.07;2.53;;;;;;;18.73;48.13;101340.19;5032997;28;20025;-77
2022/09/13 04:54:20;;;;;;;4.88;2.40;;;;;;;18.75;48.16;101340.66;5032992;28;20029;-75
2022/09/13 04:56:46;;;;;;;6.63;2.53;;;;;;;18.76;47.97;101335.94;5032718;28;20074;-78
2022/09/13 04:59:13;;;;;;;5.55;2.15;;;;;;;18.72;48.15;101338.59;5032849;28;20033;-76
2022/09/13 05:01:39;;;;;;;4.18;2.13;;;;;;;18.74;48.35;101347.38;5032878;28;20025;-75
2022/09/13 05:04:08;;;;;;;7.13;2.42;;;;;;;18.76;48.61;101344.22;5032800;28;20044;-75
2022/09/13 05:06:34;;;;;;;7.50;2.50;;;;;;;18.74;48.67;101338.22;5032832;28;20100;-75
2022/09/13 05:08:59;;;;;;;3.70;1.80;;;;;;;18.83;48.50;101331.38;5032749;28;20257;-75
2022/09/13 05:11:27;;;;;;;6.63;1.95;;;;;;;18.74;48.97;101333.53;5032385;28;20041;-75
2022/09/13 05:13:56;;;;;;;5.88;2.65;;;;;;;18.82;48.78;101328.97;5032739;28;20108;-78
2022/09/13 05:16:32;;;;;;;8.80;6.27;;;;;;;18.78;48.71;101330.84;5032594;28;20148;-75
2022/09/13 05:18:58;;;;;;;6.25;2.42;;;;;;;18.63;49.19;101335.13;5032144;28;20128;-75
2022/09/13 05:21:26;;;;;;;3.60;1.98;;;;;;;18.77;48.81;101330.03;5032307;28;20017;-75
2022/09/13 05:23:53;;;;;;;4.05;2.53;;;;;;;18.83;48.58;101327.81;5032605;28;20029;-73
2022/09/13 05:26:20;;;;;;;6.55;2.28;;;;;;;18.66;49.11;101328.13;5032070;28;20074;-76
2022/09/13 05:28:46;;;;;;;6.72;2.47;;;;;;;18.77;48.82;101324.50;5028766;28;20101;-78
2022/09/13 05:31:14;;;;;;;11.07;2.72;;;;;;;18.75;49.03;101326.81;5020540;28;20120;-74
2022/09/13 05:33:39;;;;;;;7.07;2.75;;;;;;;18.89;48.67;101329.13;5019873;28;20079;-75
2022/09/13 05:36:06;;;;;;;8.40;2.53;;;;;;;18.65;49.06;101327.28;5021318;28;20598;-77
2022/09/13 05:38:32;;;;;;;8.95;2.55;;;;;;;18.75;48.72;101320.47;5020501;28;20108;-77
2022/09/13 05:41:00;;;;;;;6.03;2.08;;;;;;;18.68;48.66;101318.31;5022168;28;20132;-76
2022/09/13 05:43:27;;;;;;;6.72;2.17;;;;;;;18.63;48.71;101318.53;5021169;28;20057;-76
2022/09/13 05:46:16;;;;;;;5.05;2.78;;;;;;;18.55;48.79;101322.25;5020313;28;20018;-75
2022/09/13 05:48:42;;;;;;;7.65;2.90;;;;;;;18.48;48.73;101322.06;5016180;28;20128;-75
2022/09/13 05:51:14;;;;;;;9.27;3.70;;;;;;;18.38;49.30;101323.38;5012361;28;20022;-75
2022/09/13 05:53:43;;;;;;;4.18;2.38;;;;;;;18.52;48.83;101314.69;5012613;28;20049;-75
2022/09/13 05:56:11;;;;;;;6.88;2.70;;;;;;;18.41;49.27;101319.91;5012461;28;20503;-75
2022/09/13 05:58:43;;;;;;;6.90;2.55;;;;;;;18.49;49.07;101315.38;5011882;28;20037;-75
2022/09/13 06:01:11;;;;;;;6.40;3.10;;;;;;;18.50;48.87;101308.69;5012500;28;20033;-75
2022/09/13 06:03:37;;;;;;;7.22;2.17;;;;;;;18.46;49.01;101325.19;5012385;28;20030;-76
2022/09/13 06:06:04;;;;;;;5.40;2.42;;;;;;;18.53;48.80;101324.59;5012382;28;20029;-77
2022/09/13 06:08:31;;;;;;;7.75;2.30;;;;;;;18.41;49.36;101333.72;5012059;28;20025;-75
2022/09/13 06:11:00;;;;;;;6.32;2.22;;;;;;;18.36;49.53;101330.41;5012030;28;20050;-77
2022/09/13 06:13:27;;;;;;;7.47;2.20;;;;;;;18.43;49.40;101327.84;5012349;28;20499;-78
2022/09/13 06:15:57;;;;;;;4.50;2.00;;;;;;;18.23;50.08;101324.94;5012362;28;20543;-75
2022/09/13 06:18:26;;;;;;;5.45;2.35;;;;;;;18.36;49.57;101325.66;5012517;28;20480;-75
2022/09/13 06:20:59;;;;;;;7.23;2.60;;;;;;;18.17;49.68;101323.56;5012367;28;20030;-75
2022/09/13 06:23:25;;;;;;;7.40;2.30;;;;;;;18.41;49.13;101325.44;5022621;28;20278;-77
2022/09/13 06:25:59;;;;;;;7.10;2.47;;;;;;;18.46;49.14;101321.63;5014190;28;20064;-78
2022/09/13 06:28:25;;;;;;;3.80;1.90;;;;;;;18.37;49.33;101321.78;5012317;28;20041;-76
2022/09/13 06:30:50;;;;;;;6.65;2.00;;;;;;;18.59;48.86;101317.66;5017857;28;20026;-74
2022/09/13 06:33:16;;;;;;;7.32;2.50;;;;;;;18.64;48.95;101317.38;5025606;28;20028;-75
2022/09/13 06:35:41;;;;;;;9.27;2.30;;;;;;;18.58;49.37;101318.78;5027236;28;20038;-75
2022/09/13 06:38:07;;;;;;;6.85;2.75;;;;;;;18.74;49.20;101314.13;5031253;28;20029;-74
2022/09/13 06:40:32;;;;;;;10.52;3.20;;;;;;;18.81;49.23;101330.09;5035123;28;20037;-78
2022/09/13 06:42:58;;;;;;;11.52;3.72;;;;;;;18.81;49.56;101319.84;5035417;28;20368;-75
2022/09/13 06:45:23;;;;;;;9.48;2.78;;;;;;;19.07;49.18;101316.59;5034758;28;20041;-75
2022/09/13 06:47:51;;;;;;;13.65;3.58;;;;;;;19.11;49.18;101316.66;5019811;28;20029;-74
2022/09/13 06:50:17;;;;;;;10.10;2.80;;;;;;;18.97;49.66;101322.66;5019946;28;20468;-75
2022/09/13 06:52:43;;;;;;;7.72;2.28;;;;;;;19.06;49.42;101328.81;5019965;28;20036;-74
2022/09/13 06:55:08;;;;;;;6.22;3.05;;;;;;;19.17;49.41;101326.31;5026703;28;20030;-75
2022/09/13 06:57:34;;;;;;;9.18;2.83;;;;;;;19.29;49.35;101323.47;5035133;28;20480;-74
2022/09/13 06:59:59;;;;;;;8.43;2.78;;;;;;;19.27;49.65;101320.25;5035122;28;20049;-74
2022/09/13 07:02:25;;;;;;;6.57;2.60;;;;;;;19.40;49.62;101323.72;5034034;28;20057;-75
2022/09/13 07:04:50;;;;;;;5.60;1.83;;;;;;;19.45;49.88;101317.13;5033656;28;20029;-75
2022/09/13 07:07:16;;;;;;;7.40;2.03;;;;;;;19.45;50.08;101322.66;5035006;28;20026;-74
2022/09/13 07:09:42;;;;;;;7.95;2.58;;;;;;;19.47;50.19;101323.91;5034835;28;20052;-73
2022/09/13 07:12:08;;;;;;;11.63;2.90;;;;;;;19.56;50.34;101320.94;5034915;28;20029;-76
2022/09/13 07:14:33;;;;;;;7.82;1.70;;;;;;;19.70;50.32;101312.19;5034954;28;20045;-76
2022/09/13 07:16:59;;;;;;;12.40;3.75;;;;;;;19.83;50.16;101317.25;5034718;28;20101;-74
2022/09/13 07:19:27;;;;;;;6.85;2.17;;;;;;;20.00;50.00;101318.00;5034426;28;20025;-74
2022/09/13 07:21:54;;;;;;;10.27;2.22;;;;;;;20.18;49.68;101320.00;5019069;28;20084;-76
2022/09/13 07:24:20;;;;;;;8.40;2.63;;;;;;;20.24;49.90;101314.94;5019248;28;20030;-76
2022/09/13 07:26:47;;;;;;;6.85;1.92;;;;;;;20.20;49.79;101316.84;5034580;28;20029;-78
2022/09/13 07:29:17;;;;;;;12.68;2.65;;;;;;;20.22;49.85;101314.50;5033659;28;20039;-76
2022/09/13 07:31:46;;;;;;;9.82;2.30;;;;;;;20.28;49.37;101328.91;5034501;28;20117;-77
2022/09/13 07:34:19;;;;;;;9.63;1.90;;;;;;;20.16;49.83;101330.63;5033255;28;20120;-76
2022/09/13 07:36:45;;;;;;;11.23;2.67;;;;;;;20.36;49.30;101331.47;5034319;28;20101;-76
2022/09/13 07:39:11;;;;;;;4.40;1.95;;;;;;;20.33;49.34;101329.44;5032864;28;20083;-77
2022/09/13 07:41:37;;;;;;;28.58;5.93;;;;;;;20.41;49.55;101335.94;5016268;28;20036;-75
2022/09/13 07:44:05;;;;;;;10.90;2.53;;;;;;;20.49;49.53;101329.38;5015827;28;20033;-76
2022/09/13 07:46:32;;;;;;;8.38;2.17;;;;;;;20.59;49.34;101327.97;5031084;28;20467;-79
2022/09/13 07:48:59;;;;;;;8.30;2.33;;;;;;;20.57;49.56;101319.22;5034000;28;20191;-76
2022/09/13 07:51:27;;;;;;;7.93;2.10;;;;;;;20.76;49.23;101321.94;5034128;28;20049;-75
2022/09/13 07:53:56;;;;;;;10.13;2.28;;;;;;;20.95;48.86;101332.22;5034174;28;20361;-77
2022/09/13 07:56:33;;;;;;;6.85;1.40;;;;;;;20.97;48.94;101332.66;5033649;28;20060;-75
2022/09/13 07:59:02;;;;;;;8.75;2.13;;;;;;;20.95;49.41;101330.25;5034026;28;20033;-76
2022/09/13 08:01:32;;;;;;;10.60;2.03;;;;;;;21.11;49.16;101329.34;5033948;28;20025;-77
2022/09/13 08:04:03;;;;;;;18.73;3.22;;;;;;;21.05;49.28;101326.06;5033878;28;20025;-77
2022/09/13 08:06:31;;;;;;;8.18;1.98;;;;;;;21.18;49.50;101324.72;5034003;28;20041;-75
2022/09/13 08:08:57;;;;;;;2.45;1.17;;;;;;;21.36;49.13;101315.88;5033733;28;20029;-76
2022/09/13 08:11:27;;;;;;;10.25;2.20;;;;;;;21.47;48.93;101314.88;5033576;28;20045;-76
2022/09/13 08:13:53;;;;;;;7.22;1.88;;;;;;;21.47;48.96;101317.66;5032993;28;20480;-76
2022/09/13 08:16:21;;;;;;;5.03;1.90;;;;;;;21.48;49.32;101318.47;5033668;28;20112;-77
2022/09/13 08:18:49;;;;;;;7.88;2.20;;;;;;;21.52;49.00;101314.56;5033669;28;20036;-75
2022/09/13 08:21:15;;;;;;;5.20;1.98;;;;;;;21.69;48.80;101309.63;5033683;28;20032;-76
2022/09/13 08:23:41;;;;;;;6.75;1.85;;;;;;;21.77;48.85;101317.72;5033564;28;20021;-75
2022/09/13 08:26:08;;;;;;;4.40;1.13;;;;;;;21.82;48.49;101313.81;5030278;28;20025;-77
2022/09/13 08:28:35;;;;;;;12.85;2.10;;;;;;;21.98;48.12;101316.41;5017630;28;20033;-76
2022/09/13 08:31:09;;;;;;;9.00;1.83;;;;;;;22.07;47.72;101281.56;5016022;28;20029;-76
2022/09/13 08:33:36;;;;;;;6.05;1.63;;;;;;;22.17;47.79;101318.28;5027093;28;20028;-75
2022/09/13 08:36:02;;;;;;;5.60;1.50;;;;;;;22.00;48.22;101311.28;5033317;28;20025;-75
2022/09/13 08:38:28;;;;;;;8.70;2.20;;;;;;;22.21;47.72;101324.69;5033319;28;20120;-76
2022/09/13 08:40:57;;;;;;;4.05;1.40;;;;;;;22.35;47.32;101322.09;5032843;28;20021;-77
2022/09/13 08:43:48;;;;;;;7.55;2.60;;;;;;;22.40;47.16;101308.63;5033289;28;20391;-76
2022/09/13 08:46:36;;;;;;;13.43;2.03;;;;;;;22.47;47.44;101313.50;5033154;28;20537;-77
2022/09/13 08:49:11;;;;;;;11.57;1.83;;;;;;;22.33;47.65;101321.66;5033226;28;20028;-78
2022/09/13 08:51:50;;;;;;;8.20;2.40;;;;;;;22.63;47.29;101318.84;5033119;28;20021;-76
2022/09/13 08:54:17;;;;;;;9.52;2.00;;;;;;;22.76;47.05;101330.53;5032162;28;20022;-75
2022/09/13 08:56:52;;;;;;;6.57;1.80;;;;;;;22.90;46.40;101327.91;5032867;28;20017;-75
2022/09/13 08:59:25;;;;;;;7.60;1.85;;;;;;;22.92;46.26;101331.13;5033239;28;20403;-75
2022/09/13 09:02:15;;;;;;;6.90;2.10;;;;;;;22.96;46.26;101335.53;5031526;28;20067;-76
2022/09/13 09:04:43;;;;;;;4.30;1.75;;;;;;;23.03;46.05;101334.78;5031037;28;20029;-76
2022/09/13 09:07:14;;;;;;;4.32;1.83;;;;;;;22.97;46.13;101347.47;5029632;28;20132;-77
2022/09/13 09:09:46;;;;;;;11.23;2.03;;;;;;;23.02;46.06;101344.34;5030893;28;20159;-76
2022/09/13 09:12:41;;;;;;;7.68;2.22;;;;;;;23.15;46.19;101336.50;5030892;28;20130;-75
2022/09/13 09:15:23;;;;;;;7.25;1.77;;;;;;;23.21;46.00;101340.56;5024874;28;20052;-76
2022/09/13 09:18:22;;;;;;;6.35;1.63;;;;;;;23.06;45.11;101336.84;5032404;28;20112;-76
2022/09/13 09:20:55;;;;;;;6.05;1.65;;;;;;;23.07;45.74;101320.91;5024906;28;20038;-76
2022/09/13 09:23:32;;;;;;;6.97;1.55;;;;;;;22.97;45.01;101334.38;5032652;28;20068;-76
2022/09/13 09:26:22;;;;;;;5.63;1.40;;;;;;;23.06;45.07;101334.03;5032331;28;20021;-75
2022/09/13 09:28:49;;;;;;;5.97;1.50;;;;;;;23.32;44.57;101329.47;5032528;28;20021;-75
2022/09/13 09:31:44;;;;;;;5.30;1.63;;;;;;;23.31;44.11;101331.47;5032379;28;20052;-76
2022/09/13 09:34:15;;;;;;;7.32;1.70;;;;;;;23.63;43.52;101333.72;5006565;28;20132;-75
2022/09/13 09:36:49;;;;;;;6.72;1.65;;;;;;;23.60;43.42;101329.72;5032382;28;20074;-75
2022/09/13 09:39:15;;;;;;;5.43;1.05;;;;;;;23.69;43.37;101332.97;5032467;28;20025;-76
2022/09/13 09:41:43;;;;;;;4.65;1.52;;;;;;;23.76;42.74;101338.59;5032444;28;20022;-75
2022/09/13 09:44:21;;;;;;;10.35;1.80;;;;;;;23.80;42.51;101336.66;5032433;28;20380;-76
2022/09/13 09:46:54;;;;;;;8.50;2.00;;;;;;;23.86;42.65;101330.69;5032331;28;20113;-77
2022/09/13 09:53:00;;;;;;;8.63;1.80;;;;;;;23.91;42.44;101333.13;5032572;28;20032;-75
2022/09/13 09:55:30;;;;;;;7.35;1.63;;;;;;;24.07;42.44;101330.81;5025267;28;20038;-76
2022/09/13 09:57:58;;;;;;;;;;;;;;;23.94;41.64;101329.53;5032667;28;20116;-75
2022/09/13 10:00:29;;;;;;;5.70;1.65;;;;;;;24.12;41.51;101324.88;5032266;28;20289;-76
2022/09/13 10:03:17;;;;;;;5.90;1.35;;;;;;;24.25;41.65;101336.47;5032447;28;20486;-76
2022/09/13 10:05:43;;;;;;;8.63;1.67;;;;;;;24.23;41.92;101330.47;5033167;28;20025;-75
2022/09/13 10:08:25;;;;;;;6.57;1.65;;;;;;;24.22;41.73;101334.47;5036220;28;20056;-75
2022/09/13 10:10:53;;;;;;;5.00;1.58;;;;;;;24.40;41.50;101328.97;5035600;28;20046;-76
2022/09/13 10:13:21;;;;;;;8.13;1.92;;;;;;;24.27;41.52;101340.50;5035887;28;20030;-76
2022/09/13 10:16:00;;;;;;;6.32;1.40;;;;;;;24.35;41.03;101335.75;5036150;28;20049;-75
2022/09/13 10:18:28;;;;;;;8.52;2.65;;;;;;;24.37;40.92;101326.97;5036039;28;20065;-76
2022/09/13 10:21:21;;;;;;;9.88;1.90;;;;;;;24.31;40.84;101330.13;5035971;28;20025;-77
2022/09/13 10:23:49;;;;;;;6.97;1.85;;;;;;;24.30;40.59;101331.31;5035861;28;20476;-76
2022/09/13 10:26:25;;;;;;;7.65;1.85;;;;;;;24.20;41.49;101328.50;5035864;28;20079;-78
2022/09/13 10:28:51;;;;;;;5.82;1.48;;;;;;;24.38;41.12;101323.00;5035772;28;20112;-76
2022/09/13 10:31:19;;;;;;;6.55;1.85;;;;;;;24.28;41.30;101325.31;5035548;28;20101;-76
2022/09/13 10:33:58;;;;;;;7.43;1.52;;;;;;;24.32;41.24;101331.75;5035898;28;20029;-76
2022/09/13 10:36:28;;;;;;;5.32;1.52;;;;;;;24.46;40.73;101324.63;5035448;28;20524;-76
2022/09/13 10:39:00;;;;;;;8.40;1.55;;;;;;;24.40;40.42;101310.22;5035575;28;20033;-76
2022/09/13 10:41:29;;;;;;;7.72;1.52;;;;;;;24.53;40.48;101316.25;5035571;28;20034;-76
2022/09/13 10:43:59;;;;;;;4.38;1.27;;;;;;;24.47;39.97;101320.63;5035302;28;20036;-77
2022/09/13 10:46:28;;;;;;;6.43;1.55;;;;;;;24.81;40.08;101323.94;5035272;28;20032;-76
2022/09/13 10:48:56;;;;;;;8.60;2.92;;;;;;;24.89;39.92;101320.75;5035451;28;20025;-75
2022/09/13 10:51:25;;;;;;;5.75;1.55;;;;;;;24.98;39.58;101322.34;5035235;28;20034;-76
2022/09/13 10:54:05;;;;;;;5.65;1.35;;;;;;;25.07;39.58;101325.56;5035341;28;20148;-76
2022/09/13 10:56:31;;;;;;;6.15;1.17;;;;;;;25.09;39.47;101334.34;5035383;28;20379;-77
2022/09/13 10:59:21;;;;;;;10.38;2.05;;;;;;;25.05;38.98;101327.97;5035133;28;20032;-76
2022/09/13 11:02:05;;;;;;;5.07;1.05;;;;;;;25.21;39.14;101324.78;5035013;28;20036;-76
2022/09/13 11:05:19;;;;;;;5.88;1.52;;;;;;;25.38;38.84;101330.38;5035098;28;20061;-76
2022/09/13 11:07:57;;;;;;;7.53;1.35;;;;;;;25.42;38.77;101333.19;5035095;28;20029;-76
2022/09/13 11:10:34;;;;;;;6.45;2.28;;;;;;;25.51;38.28;101332.78;5033466;28;20037;-76
2022/09/13 11:12:59;;;;;;;4.82;1.10;;;;;;;25.66;38.81;101318.34;5034877;28;20088;-76
2022/09/13 11:15:29;;;;;;;8.30;2.75;;;;;;;25.66;38.47;101318.34;5034897;28;20021;-76
2022/09/13 11:18:22;;;;;;;7.53;1.50;;;;;;;25.72;37.67;101316.00;5033712;28;20029;-75
2022/09/13 11:20:53;;;;;;;6.18;1.60;;;;;;;25.81;38.57;101319.16;5034947;28;20021;-77
2022/09/13 11:23:37;;;;;;;5.15;1.45;;;;;;;25.87;38.37;101311.94;5034478;28;20040;-77
2022/09/13 11:26:20;;;;;;;5.70;1.33;;;;;;;25.88;37.40;101316.34;5033440;28;20467;-76
2022/09/13 11:28:51;;;;;;;4.50;1.35;;;;;;;25.97;37.57;101321.50;5034586;28;20116;-76
2022/09/13 11:31:41;;;;;;;5.18;1.48;;;;;;;26.00;37.00;101321.53;5034752;28;20030;-75
2022/09/13 11:34:28;;;;;;;3.38;1.20;;;;;;;26.02;37.22;101320.31;5034729;28;20033;-76
2022/09/13 11:37:13;;;;;;;4.72;1.15;;;;;;;26.17;36.84;101321.88;5034556;28;20026;-74
2022/09/13 11:39:56;;;;;;;5.18;1.60;;;;;;;26.06;36.24;101312.69;5034585;28;20037;-75
2022/09/13 11:42:44;;;;;;;4.43;1.17;;;;;;;26.18;36.14;101306.66;5034422;28;20029;-79
2022/09/13 11:45:21;;;;;;;4.70;1.00;;;;;;;26.28;36.31;101309.41;5034429;28;20029;-75
2022/09/13 11:47:55;;;;;;;6.78;2.35;;;;;;;26.24;36.35;101308.63;5034260;28;20035;-77
2022/09/13 11:50:47;;;;;;;3.97;1.50;;;;;;;26.20;36.52;101315.44;5033044;28;20033;-76
2022/09/13 11:53:12;;;;;;;3.53;1.52;;;;;;;26.35;36.40;101304.97;5028542;28;20034;-77